Search flights

Alguaire Airport (LEDA)

Airport Weather & NOTAM's

METAR for:LEDA (Lleida-Alguaire Arpt, CT, ES)
Text:LEDA 250230Z AUTO 07008KT CAVOK 14/12 Q1017
Conditions at:0230 UTC 25 May 2024
Temperature: 14.0°C ( 57°F)
Dewpoint: 12.0°C ( 54°F) [RH = 88%]
Pressure (altimeter):30.03 inches Hg (1017.0 mb)
Winds:from the ENE (70 degrees) at 9 MPH (8 knots; 4.1 m/s)
Visibility:6 or more sm (10+ km)
Ceiling:ceiling and visibility are OK
Clouds:unknown

Live Departures & Arrivals

There are currently no arrivals or departures for this airport.

Departures History (last 12 months)

Flight No. Dest. Aircraft Date
BXS1836 LFMN HJET HA420... 2024-05-13 21:08:51

Arrivals History (last 12 months)

Flight No. Origin Aircraft Date
BXS1836 LEVD HJET HA420... 2024-05-13 14:59:55

Runway Information (Airport elevation: 1,152ft)

Runway 13 Length 8,181ft Width 189ft Elevation 1,148ft Surface Asphalt Heading 133
Runway 31 Length 8,181ft Width 189ft Elevation 1,148ft Surface Asphalt Heading 313

Airport Frequencies

Type APP/DEP Frequency 127.700 Mhz
Type Tower Frequency 127.700 Mhz
Type Ground Frequency 121.630 Mhz
Type Tower Frequency 121.330 Mhz
Type Tower Frequency 121.630 Mhz
Type Ground Frequency 121.625 Mhz
Type Tower Frequency 121.325 Mhz

Airport Navaids

No navaids to display.